Aviation Digital Data Service (ADDS)

Output produced by METARs form (0815 UTC 20 March 2019)
found at http://www.aviationweather.gov/metar/data/
 
METAR text: MRLB 200600Z 25002KT CAVOK 23/17 A2986 NOSIG
Conditions at: MRLB (LIBERIA/TOMAS G , CR) observed 0600 UTC 20 March 2019
Temperature: 23.0°C (73°F)
Dewpoint: 17.0°C (63°F) [RH = 69%]
Pressure (altimeter): 29.86 inches Hg (1011.3 mb)
Winds: from the WSW (250 degrees) at 2 MPH (2 knots; 1.0 m/s)
Visibility: 6 or more miles (10+ km)
Ceiling: ceiling and visibility are OK
Clouds: unknown
Weather: no significant weather observed at this time

METAR text: MRLB 200500Z 05002KT CAVOK 25/17 A2988 NOSIG
Conditions at: MRLB (LIBERIA/TOMAS G , CR) observed 0500 UTC 20 March 2019
Temperature: 25.0°C (77°F)
Dewpoint: 17.0°C (63°F) [RH = 61%]
Pressure (altimeter): 29.88 inches Hg (1011.9 mb)
Winds: from the NE (50 degrees) at 2 MPH (2 knots; 1.0 m/s)
Visibility: 6 or more miles (10+ km)
Ceiling: ceiling and visibility are OK
Clouds: unknown
Weather: no significant weather observed at this time

METAR text: MRLB 200400Z 11003KT CAVOK 27/17 A2989 NOSIG
Conditions at: MRLB (LIBERIA/TOMAS G , CR) observed 0400 UTC 20 March 2019
Temperature: 27.0°C (81°F)
Dewpoint: 17.0°C (63°F) [RH = 54%]
Pressure (altimeter): 29.89 inches Hg (1012.3 mb)
Winds: from the ESE (110 degrees) at 3 MPH (3 knots; 1.5 m/s)
Visibility: 6 or more miles (10+ km)
Ceiling: ceiling and visibility are OK
Clouds: unknown
Weather: no significant weather observed at this time

METAR text: MRLB 200300Z 10006KT CAVOK 28/16 A2988 NOSIG
Conditions at: MRLB (LIBERIA/TOMAS G , CR) observed 0300 UTC 20 March 2019
Temperature: 28.0°C (82°F)
Dewpoint: 16.0°C (61°F) [RH = 48%]
Pressure (altimeter): 29.88 inches Hg (1011.9 mb)
Winds: from the E (100 degrees) at 7 MPH (6 knots; 3.1 m/s)
Visibility: 6 or more miles (10+ km)
Ceiling: ceiling and visibility are OK
Clouds: unknown
Weather: no significant weather observed at this time

METAR text: MRLB 200200Z 09008KT CAVOK 28/17 A2986 NOSIG
Conditions at: MRLB (LIBERIA/TOMAS G , CR) observed 0200 UTC 20 March 2019
Temperature: 28.0°C (82°F)
Dewpoint: 17.0°C (63°F) [RH = 51%]
Pressure (altimeter): 29.86 inches Hg (1011.3 mb)
Winds: from the E (90 degrees) at 9 MPH (8 knots; 4.1 m/s)
Visibility: 6 or more miles (10+ km)
Ceiling: ceiling and visibility are OK
Clouds: unknown
Weather: no significant weather observed at this time

METAR text: MRLB 200100Z 09010KT CAVOK 29/18 A2982 NOSIG
Conditions at: MRLB (LIBERIA/TOMAS G , CR) observed 0100 UTC 20 March 2019
Temperature: 29.0°C (84°F)
Dewpoint: 18.0°C (64°F) [RH = 52%]
Pressure (altimeter): 29.82 inches Hg (1009.9 mb)
Winds: from the E (90 degrees) at 12 MPH (10 knots; 5.1 m/s)
Visibility: 6 or more miles (10+ km)
Ceiling: ceiling and visibility are OK
Clouds: unknown
Weather: no significant weather observed at this time

METAR text: MRLB 200000Z 08010KT CAVOK 30/19 A2979 NOSIG
Conditions at: MRLB (LIBERIA/TOMAS G , CR) observed 0000 UTC 20 March 2019
Temperature: 30.0°C (86°F)
Dewpoint: 19.0°C (66°F) [RH = 52%]
Pressure (altimeter): 29.79 inches Hg (1008.9 mb)
Winds: from the E (80 degrees) at 12 MPH (10 knots; 5.1 m/s)
Visibility: 6 or more miles (10+ km)
Ceiling: ceiling and visibility are OK
Clouds: unknown
Weather: no significant weather observed at this time

METAR text: MRLB 192300Z 09012KT 9999 FEW045 32/19 A2977 NOSIG
Conditions at: MRLB (LIBERIA/TOMAS G , CR) observed 2300 UTC 19 March 2019
Temperature: 32.0°C (90°F)
Dewpoint: 19.0°C (66°F) [RH = 46%]
Pressure (altimeter): 29.77 inches Hg (1008.2 mb)
Winds: from the E (90 degrees) at 14 MPH (12 knots; 6.2 m/s)
Visibility: 6 or more miles (10+ km)
Ceiling: at least 12,000 feet AGL
Clouds: few clouds at 4500 feet AGL
Weather: no significant weather observed at this time

METAR text: MRLB 192200Z 09010KT 9999 FEW045 33/18 A2976 NOSIG
Conditions at: MRLB (LIBERIA/TOMAS G , CR) observed 2200 UTC 19 March 2019
Temperature: 33.0°C (91°F)
Dewpoint: 18.0°C (64°F) [RH = 41%]
Pressure (altimeter): 29.76 inches Hg (1007.9 mb)
Winds: from the E (90 degrees) at 12 MPH (10 knots; 5.1 m/s)
Visibility: 6 or more miles (10+ km)
Ceiling: at least 12,000 feet AGL
Clouds: few clouds at 4500 feet AGL
Weather: no significant weather observed at this time

METAR text: MRLB 192100Z 09008KT 9999 FEW045 36/18 A2976 NOSIG
Conditions at: MRLB (LIBERIA/TOMAS G , CR) observed 2100 UTC 19 March 2019
Temperature: 36.0°C (97°F)
Dewpoint: 18.0°C (64°F) [RH = 35%]
Pressure (altimeter): 29.76 inches Hg (1007.9 mb)
Winds: from the E (90 degrees) at 9 MPH (8 knots; 4.1 m/s)
Visibility: 6 or more miles (10+ km)
Ceiling: at least 12,000 feet AGL
Clouds: few clouds at 4500 feet AGL
Weather: no significant weather observed at this time

METAR text: MRLB 192000Z 10009KT 9999 FEW045 36/18 A2978 NOSIG
Conditions at: MRLB (LIBERIA/TOMAS G , CR) observed 2000 UTC 19 March 2019
Temperature: 36.0°C (97°F)
Dewpoint: 18.0°C (64°F) [RH = 35%]
Pressure (altimeter): 29.78 inches Hg (1008.5 mb)
Winds: from the E (100 degrees) at 10 MPH (9 knots; 4.6 m/s)
Visibility: 6 or more miles (10+ km)
Ceiling: at least 12,000 feet AGL
Clouds: few clouds at 4500 feet AGL
Weather: no significant weather observed at this time

METAR text: MRLB 191900Z 10010KT 9999 FEW045 35/18 A2981 NOSIG
Conditions at: MRLB (LIBERIA/TOMAS G , CR) observed 1900 UTC 19 March 2019
Temperature: 35.0°C (95°F)
Dewpoint: 18.0°C (64°F) [RH = 37%]
Pressure (altimeter): 29.81 inches Hg (1009.6 mb)
Winds: from the E (100 degrees) at 12 MPH (10 knots; 5.1 m/s)
Visibility: 6 or more miles (10+ km)
Ceiling: at least 12,000 feet AGL
Clouds: few clouds at 4500 feet AGL
Weather: no significant weather observed at this time

METAR text: MRLB 191800Z 07007KT 9999 FEW045 35/18 A2983 NOSIG
Conditions at: MRLB (LIBERIA/TOMAS G , CR) observed 1800 UTC 19 March 2019
Temperature: 35.0°C (95°F)
Dewpoint: 18.0°C (64°F) [RH = 37%]
Pressure (altimeter): 29.83 inches Hg (1010.2 mb)
Winds: from the ENE (70 degrees) at 8 MPH (7 knots; 3.6 m/s)
Visibility: 6 or more miles (10+ km)
Ceiling: at least 12,000 feet AGL
Clouds: few clouds at 4500 feet AGL
Weather: no significant weather observed at this time

METAR text: MRLB 191700Z 09009KT 020V180 9999 FEW045 35/17 A2987 NOSIG
Conditions at: MRLB (LIBERIA/TOMAS G , CR) observed 1700 UTC 19 March 2019
Temperature: 35.0°C (95°F)
Dewpoint: 17.0°C (63°F) [RH = 34%]
Pressure (altimeter): 29.87 inches Hg (1011.6 mb)
Winds: from the E (90 degrees) at 10 MPH (9 knots; 4.6 m/s)
Visibility: 6 or more miles (10+ km)
Ceiling: at least 12,000 feet AGL
Clouds: few clouds at 4500 feet AGL
Weather: no significant weather observed at this time

METAR text: MRLB 191600Z 33006KT 260V030 CAVOK 33/18 A2989 NOSIG
Conditions at: MRLB (LIBERIA/TOMAS G , CR) observed 1600 UTC 19 March 2019
Temperature: 33.0°C (91°F)
Dewpoint: 18.0°C (64°F) [RH = 41%]
Pressure (altimeter): 29.89 inches Hg (1012.3 mb)
Winds: from the NNW (330 degrees) at 7 MPH (6 knots; 3.1 m/s)
Visibility: 6 or more miles (10+ km)
Ceiling: ceiling and visibility are OK
Clouds: unknown
Weather: no significant weather observed at this time

METAR text: MRLB 191500Z VRB02KT CAVOK 31/18 A2990 NOSIG
Conditions at: MRLB (LIBERIA/TOMAS G , CR) observed 1500 UTC 19 March 2019
Temperature: 31.0°C (88°F)
Dewpoint: 18.0°C (64°F) [RH = 46%]
Pressure (altimeter): 29.90 inches Hg (1012.6 mb)
Winds: variable direction winds at 2 MPH (2 knots; 1.0 m/s)
Visibility: 6 or more miles (10+ km)
Ceiling: ceiling and visibility are OK
Clouds: unknown
Weather: no significant weather observed at this time

METAR text: MRLB 191400Z 27003KT 230V320 CAVOK 28/18 A2989 NOSIG
Conditions at: MRLB (LIBERIA/TOMAS G , CR) observed 1400 UTC 19 March 2019
Temperature: 28.0°C (82°F)
Dewpoint: 18.0°C (64°F) [RH = 55%]
Pressure (altimeter): 29.89 inches Hg (1012.3 mb)
Winds: from the W (270 degrees) at 3 MPH (3 knots; 1.5 m/s)
Visibility: 6 or more miles (10+ km)
Ceiling: ceiling and visibility are OK
Clouds: unknown
Weather: no significant weather observed at this time

METAR text: MRLB 191300Z 00000KT CAVOK 24/18 A2987 NOSIG
Conditions at: MRLB (LIBERIA/TOMAS G , CR) observed 1300 UTC 19 March 2019
Temperature: 24.0°C (75°F)
Dewpoint: 18.0°C (64°F) [RH = 69%]
Pressure (altimeter): 29.87 inches Hg (1011.6 mb)
Winds: calm
Visibility: 6 or more miles (10+ km)
Ceiling: ceiling and visibility are OK
Clouds: unknown
Weather: no significant weather observed at this time

METAR text: MRLB 191200Z 03004KT CAVOK 22/17 A2984 NOSIG
Conditions at: MRLB (LIBERIA/TOMAS G , CR) observed 1200 UTC 19 March 2019
Temperature: 22.0°C (72°F)
Dewpoint: 17.0°C (63°F) [RH = 73%]
Pressure (altimeter): 29.84 inches Hg (1010.6 mb)
Winds: from the NNE (30 degrees) at 5 MPH (4 knots; 2.1 m/s)
Visibility: 6 or more miles (10+ km)
Ceiling: ceiling and visibility are OK
Clouds: unknown
Weather: no significant weather observed at this time

METAR text: MRLB 190500Z 09013KT CAVOK 27/17 A2986 NOSIG
Conditions at: MRLB (LIBERIA/TOMAS G , CR) observed 0500 UTC 19 March 2019
Temperature: 27.0°C (81°F)
Dewpoint: 17.0°C (63°F) [RH = 54%]
Pressure (altimeter): 29.86 inches Hg (1011.3 mb)
Winds: from the E (90 degrees) at 15 MPH (13 knots; 6.7 m/s)
Visibility: 6 or more miles (10+ km)
Ceiling: ceiling and visibility are OK
Clouds: unknown
Weather: no significant weather observed at this time

METAR text: MRLB 190400Z 08011KT CAVOK 28/17 A2986 NOSIG
Conditions at: MRLB (LIBERIA/TOMAS G , CR) observed 0400 UTC 19 March 2019
Temperature: 28.0°C (82°F)
Dewpoint: 17.0°C (63°F) [RH = 51%]
Pressure (altimeter): 29.86 inches Hg (1011.3 mb)
Winds: from the E (80 degrees) at 13 MPH (11 knots; 5.7 m/s)
Visibility: 6 or more miles (10+ km)
Ceiling: ceiling and visibility are OK
Clouds: unknown
Weather: no significant weather observed at this time

METAR text: MRLB 190300Z 09012KT CAVOK 28/17 A2984 NOSIG
Conditions at: MRLB (LIBERIA/TOMAS G , CR) observed 0300 UTC 19 March 2019
Temperature: 28.0°C (82°F)
Dewpoint: 17.0°C (63°F) [RH = 51%]
Pressure (altimeter): 29.84 inches Hg (1010.6 mb)
Winds: from the E (90 degrees) at 14 MPH (12 knots; 6.2 m/s)
Visibility: 6 or more miles (10+ km)
Ceiling: ceiling and visibility are OK
Clouds: unknown
Weather: no significant weather observed at this time

METAR text: MRLB 190200Z 09014KT CAVOK 28/18 A2982 NOSIG
Conditions at: MRLB (LIBERIA/TOMAS G , CR) observed 0200 UTC 19 March 2019
Temperature: 28.0°C (82°F)
Dewpoint: 18.0°C (64°F) [RH = 55%]
Pressure (altimeter): 29.82 inches Hg (1009.9 mb)
Winds: from the E (90 degrees) at 16 MPH (14 knots; 7.2 m/s)
Visibility: 6 or more miles (10+ km)
Ceiling: ceiling and visibility are OK
Clouds: unknown
Weather: no significant weather observed at this time

METAR text: MRLB 190100Z 08013KT CAVOK 29/18 A2978 NOSIG
Conditions at: MRLB (LIBERIA/TOMAS G , CR) observed 0100 UTC 19 March 2019
Temperature: 29.0°C (84°F)
Dewpoint: 18.0°C (64°F) [RH = 52%]
Pressure (altimeter): 29.78 inches Hg (1008.5 mb)
Winds: from the E (80 degrees) at 15 MPH (13 knots; 6.7 m/s)
Visibility: 6 or more miles (10+ km)
Ceiling: ceiling and visibility are OK
Clouds: unknown
Weather: no significant weather observed at this time

METAR text: MRLB 190000Z 09013KT CAVOK 30/18 A2975 NOSIG
Conditions at: MRLB (LIBERIA/TOMAS G , CR) observed 0000 UTC 19 March 2019
Temperature: 30.0°C (86°F)
Dewpoint: 18.0°C (64°F) [RH = 49%]
Pressure (altimeter): 29.75 inches Hg (1007.5 mb)
Winds: from the E (90 degrees) at 15 MPH (13 knots; 6.7 m/s)
Visibility: 6 or more miles (10+ km)
Ceiling: ceiling and visibility are OK
Clouds: unknown
Weather: no significant weather observed at this time

METAR text: MRLB 182300Z 08014KT CAVOK 32/18 A2973 NOSIG
Conditions at: MRLB (LIBERIA/TOMAS G , CR) observed 2300 UTC 18 March 2019
Temperature: 32.0°C (90°F)
Dewpoint: 18.0°C (64°F) [RH = 43%]
Pressure (altimeter): 29.73 inches Hg (1006.9 mb)
Winds: from the E (80 degrees) at 16 MPH (14 knots; 7.2 m/s)
Visibility: 6 or more miles (10+ km)
Ceiling: ceiling and visibility are OK
Clouds: unknown
Weather: no significant weather observed at this time

METAR text: MRLB 182200Z 09017KT CAVOK 33/17 A2971 NOSIG
Conditions at: MRLB (LIBERIA/TOMAS G , CR) observed 2200 UTC 18 March 2019
Temperature: 33.0°C (91°F)
Dewpoint: 17.0°C (63°F) [RH = 39%]
Pressure (altimeter): 29.71 inches Hg (1006.2 mb)
Winds: from the E (90 degrees) at 20 MPH (17 knots; 8.7 m/s)
Visibility: 6 or more miles (10+ km)
Ceiling: ceiling and visibility are OK
Clouds: unknown
Weather: no significant weather observed at this time

METAR text: MRLB 182100Z 08019KT CAVOK 34/17 A2971 NOSIG
Conditions at: MRLB (LIBERIA/TOMAS G , CR) observed 2100 UTC 18 March 2019
Temperature: 34.0°C (93°F)
Dewpoint: 17.0°C (63°F) [RH = 36%]
Pressure (altimeter): 29.71 inches Hg (1006.2 mb)
Winds: from the E (80 degrees) at 22 MPH (19 knots; 9.8 m/s)
Visibility: 6 or more miles (10+ km)
Ceiling: ceiling and visibility are OK
Clouds: unknown
Weather: no significant weather observed at this time

Forecast for: MRLB (LIBERIA/TOMAS G , CR)
Text: MRLB 200500Z 2006/2106 08013KT CAVOK TX36/2019Z TN20/2011Z
Forecast period: 0600 UTC 20 March 2019 to 0600 UTC 21 March 2019
Forecast type: FROM: standard forecast or significant change
Winds: from the E (80 degrees) at 15 MPH (13 knots; 6.7 m/s)
Visibility: 6 or more miles 10+ km)
Ceiling: unknown
Clouds: missing
Weather: no significant weather forecast for this period
Text: TEMPO 2007/2014 27003KT
Forecast period: 0700 to 1400 UTC 20 March 2019
Forecast type: TEMPORARY: The following changes expected for less than half the time period
Winds: from the W (270 degrees) at 3 MPH (3 knots; 1.5 m/s)
Visibility: missing
Ceiling: unknown
Clouds: missing
Weather: no significant weather forecast for this period